OMDB

Dubai International Airport

Dubai, United Arab Emirates
METAR OMDB 201700Z 06004KT 020V110 CAVOK 34/26 Q1005 NOSIG
Observed Flight Rules
Sep-20 @ 17:00 UTC (2 hours ago) Visual Flight Rules
Wind Visibility Clouds
60° at 4 knots 10,000+ meters
Temperatures Readings
Current 34°C / 93°F
Dewpoint 26°C / 79°F
Humidity 63%
Altimeter 29.68" Hg
Pressure 1005 hPa
Elevation 5
METAR OMDB 201700Z 06004KT 020V110 CAVOK 34/26 Q1005 NOSIG
Observed Flight Rules
Sep-20 @ 17:00 UTC
(2 hours ago)
VFR
Wind Visibility
60° at 4 knots 10,000+ meters
Clouds
Temperature Dewpoint
34°C / 93°F 26°C / 79°F
Humidity Altimeter Pressure
63% 29.68" Hg 1005 hPa